Time;durP1;ratioP1;P1;durP2;ratioP2;P2;SDS_P1;SDS_P2;PMS_P1;PMS_P2;Temp;Humidity;BMP_temperature;BMP_pressure;BME280_temperature;BME280_humidity;BME280_pressure;Samples;Min_cycle;Max_cycle;Signal;HPM_P1;HPM_P2
2022/02/20 06:36:48;;;;;;;28.50;27.30;;;18.50;80.00;;;;;;5088602;27;20546;-46
2022/02/20 06:39:14;;;;;;;30.10;28.80;;;18.50;80.40;;;;;;5088594;28;20453;-47
2022/02/20 06:41:41;;;;;;;30.80;29.50;;;18.50;79.20;;;;;;5088443;28;20470;-46
2022/02/20 06:44:08;;;;;;;29.83;28.53;;;18.60;79.00;;;;;;5089155;28;20443;-46
2022/02/20 06:46:35;;;;;;;30.07;28.83;;;18.70;79.00;;;;;;5088960;28;20438;-45
2022/02/20 06:49:02;;;;;;;28.60;27.40;;;18.80;78.70;;;;;;5106822;22;20492;-38
2022/02/20 06:51:28;;;;;;;30.03;28.53;;;18.80;78.00;;;;;;5064543;28;20438;-40
2022/02/20 06:53:56;;;;;;;30.33;29.00;;;18.90;77.80;;;;;;5068643;28;20458;-40
2022/02/20 06:56:23;;;;;;;29.90;28.70;;;18.90;77.20;;;;;;5067794;28;20471;-41
2022/02/20 06:58:50;;;;;;;29.07;27.87;;;18.90;76.90;;;;;;5068444;28;20929;-40
2022/02/20 07:01:17;;;;;;;31.63;30.33;;;19.00;76.90;;;;;;5067984;28;20455;-41
2022/02/20 07:03:43;;;;;;;32.40;31.10;;;19.00;76.30;;;;;;5048971;28;20806;-41
2022/02/20 07:06:10;;;;;;;29.00;27.80;;;19.00;76.00;;;;;;5048726;28;20904;-40
2022/02/20 07:08:37;;;;;;;29.60;28.40;;;19.00;76.00;;;;;;5048550;28;20451;-40
2022/02/20 07:11:06;;;;;;;29.30;28.10;;;19.00;76.10;;;;;;5048557;28;20440;-40
2022/02/20 07:13:33;;;;;;;27.70;26.60;;;19.00;76.00;;;;;;5048018;28;20443;-41
2022/02/20 07:15:59;;;;;;;30.00;28.70;;;19.00;75.70;;;;;;5047255;28;20483;-41
2022/02/20 07:18:26;;;;;;;29.97;28.77;;;19.00;75.40;;;;;;5047407;28;20445;-40
2022/02/20 07:20:53;;;;;;;29.67;28.43;;;19.00;75.40;;;;;;5048136;28;20464;-41
2022/02/20 07:23:20;;;;;;;30.30;29.00;;;19.00;75.10;;;;;;5047630;28;20813;-40
2022/02/20 07:25:47;;;;;;;29.37;28.17;;;19.00;75.30;;;;;;5047695;28;20468;-40
2022/02/20 07:28:15;;;;;;;30.33;28.90;;;19.00;75.10;;;;;;5047895;28;20445;-43
2022/02/20 07:30:42;;;;;;;32.40;31.10;;;19.00;75.00;;;;;;5047767;28;20474;-39
2022/02/20 07:33:10;;;;;;;31.60;30.30;;;19.00;75.00;;;;;;5047711;28;20444;-39
2022/02/20 07:35:37;;;;;;;29.73;28.43;;;19.00;75.10;;;;;;5046572;28;20502;-43
2022/02/20 07:38:05;;;;;;;29.10;27.90;;;19.00;75.30;;;;;;5047627;28;20536;-39
2022/02/20 07:40:32;;;;;;;27.87;26.70;;;19.00;75.70;;;;;;5047630;28;20476;-43
2022/02/20 07:42:59;;;;;;;28.03;26.90;;;19.00;75.30;;;;;;5046701;28;20950;-39
2022/02/20 07:45:27;;;;;;;28.07;26.77;;;19.00;75.40;;;;;;5047049;28;20507;-39
2022/02/20 07:47:58;;;;;;;27.30;26.20;;;18.90;74.60;;;;;;5035568;28;20445;-40
2022/02/20 07:50:27;;;;;;;27.03;25.83;;;19.00;75.30;;;;;;5034257;28;20476;-41
2022/02/20 07:52:54;;;;;;;26.93;25.83;;;19.00;74.90;;;;;;5033927;28;20445;-41
2022/02/20 07:55:22;;;;;;;26.90;25.70;;;19.20;74.70;;;;;;5034073;28;20481;-40
2022/02/20 07:57:49;;;;;;;27.47;26.33;;;19.30;73.00;;;;;;5034364;28;20453;-41
2022/02/20 08:00:19;;;;;;;28.03;26.83;;;19.50;72.80;;;;;;5034411;28;20470;-41
2022/02/20 08:02:47;;;;;;;28.80;27.60;;;19.80;72.20;;;;;;5033798;28;20449;-44
2022/02/20 08:05:15;;;;;;;27.53;26.33;;;20.10;70.70;;;;;;5033942;28;20442;-43
2022/02/20 08:07:42;;;;;;;27.20;26.00;;;20.40;68.00;;;;;;5033958;28;20452;-44
2022/02/20 08:10:10;;;;;;;26.90;25.80;;;20.60;66.20;;;;;;5034099;28;20469;-42
2022/02/20 08:12:37;;;;;;;26.27;25.17;;;20.70;65.20;;;;;;5033754;28;20508;-43
2022/02/20 08:15:04;;;;;;;25.53;24.43;;;20.70;63.80;;;;;;5033571;28;20931;-40
2022/02/20 08:17:31;;;;;;;24.77;23.77;;;20.80;63.00;;;;;;5034127;28;20458;-40
2022/02/20 08:19:59;;;;;;;25.53;24.43;;;20.90;62.50;;;;;;5033377;28;20472;-41
2022/02/20 08:22:26;;;;;;;25.63;24.53;;;20.90;61.60;;;;;;5033971;28;20457;-40
2022/02/20 08:24:52;;;;;;;25.87;24.77;;;20.90;60.90;;;;;;5033879;28;20449;-42
2022/02/20 08:27:19;;;;;;;25.60;24.60;;;21.00;60.20;;;;;;5033605;28;20977;-40
2022/02/20 08:29:46;;;;;;;23.63;22.63;;;21.10;60.50;;;;;;5033346;28;20469;-40
2022/02/20 08:32:13;;;;;;;24.87;23.87;;;21.50;59.80;;;;;;5033197;28;20483;-41
2022/02/20 08:34:39;;;;;;;24.00;23.00;;;21.60;58.80;;;;;;5033659;28;20445;-40
2022/02/20 08:37:08;;;;;;;26.40;25.30;;;21.70;58.00;;;;;;5033501;28;20485;-39
2022/02/20 08:39:35;;;;;;;24.13;23.03;;;21.70;57.20;;;;;;5033008;28;20471;-40
2022/02/20 08:42:01;;;;;;;25.00;23.90;;;21.70;56.70;;;;;;5033323;28;20449;-42
2022/02/20 08:44:33;;;;;;;27.70;26.50;;;21.80;56.60;;;;;;5033330;28;20584;-42
2022/02/20 08:47:00;;;;;;;27.50;26.30;;;21.80;56.10;;;;;;5033475;28;20445;-41
2022/02/20 08:49:27;;;;;;;26.67;25.57;;;21.80;55.80;;;;;;5033389;28;20473;-41
2022/02/20 08:51:54;;;;;;;24.50;23.43;;;21.80;55.80;;;;;;5033377;28;20454;-42
2022/02/20 08:54:22;;;;;;;25.37;24.07;;;21.80;55.80;;;;;;5032585;28;20472;-42
2022/02/20 08:56:49;;;;;;;25.90;24.70;;;21.90;55.70;;;;;;5032635;28;20485;-41
2022/02/20 08:59:16;;;;;;;26.07;24.87;;;22.20;55.50;;;;;;5032126;28;20465;-41
2022/02/20 09:01:42;;;;;;;27.40;26.20;;;22.30;54.80;;;;;;5031925;28;20449;-41
2022/02/20 09:04:12;;;;;;;25.93;24.80;;;22.30;54.10;;;;;;5032205;28;20446;-40
2022/02/20 09:06:40;;;;;;;25.30;24.13;;;22.30;53.90;;;;;;5032167;28;20491;-41
2022/02/20 09:09:07;;;;;;;26.27;25.10;;;22.40;53.90;;;;;;5032059;28;20466;-40
2022/02/20 09:11:37;;;;;;;26.53;25.43;;;22.40;53.80;;;;;;5032726;28;20445;-41
2022/02/20 09:14:04;;;;;;;27.00;25.80;;;22.40;53.80;;;;;;5031929;28;20473;-45
2022/02/20 09:16:30;;;;;;;25.13;23.93;;;22.30;53.70;;;;;;5031916;28;20572;-41
2022/02/20 09:18:57;;;;;;;26.60;25.40;;;22.40;53.80;;;;;;5032609;28;20477;-40
2022/02/20 09:21:24;;;;;;;26.43;25.23;;;22.60;53.60;;;;;;5032511;28;20538;-41
2022/02/20 09:23:51;;;;;;;24.50;23.40;;;22.70;53.10;;;;;;5032909;28;20455;-42
2022/02/20 09:26:18;;;;;;;25.10;24.00;;;22.80;52.60;;;;;;5032876;28;20445;-41
2022/02/20 09:28:46;;;;;;;24.07;23.03;;;22.80;52.50;;;;;;5032504;28;20446;-42
2022/02/20 09:31:13;;;;;;;25.97;24.77;;;22.90;52.30;;;;;;5032408;28;20456;-40
2022/02/20 09:33:40;;;;;;;25.63;24.53;;;22.90;52.10;;;;;;5032590;28;20858;-42
2022/02/20 09:36:08;;;;;;;24.80;23.70;;;22.80;51.90;;;;;;5031770;28;20492;-41
2022/02/20 09:38:36;;;;;;;23.70;22.60;;;22.80;51.80;;;;;;5031284;28;20934;-41
2022/02/20 09:41:04;;;;;;;23.77;22.77;;;22.80;51.90;;;;;;5032125;28;20453;-42
2022/02/20 09:43:34;;;;;;;24.70;23.50;;;22.70;51.80;;;;;;5032156;28;20445;-40
2022/02/20 09:46:03;;;;;;;25.03;23.93;;;22.80;52.00;;;;;;5031589;28;20453;-44
2022/02/20 09:48:30;;;;;;;25.60;24.50;;;22.90;51.90;;;;;;5031524;28;20453;-42
2022/02/20 09:50:59;;;;;;;27.03;25.83;;;23.10;51.30;;;;;;5031765;28;20480;-40
2022/02/20 09:53:26;;;;;;;25.77;24.67;;;23.20;50.70;;;;;;5032095;28;20461;-39
2022/02/20 09:55:53;;;;;;;27.13;25.93;;;23.20;50.60;;;;;;5032051;28;20473;-42
2022/02/20 09:58:20;;;;;;;25.97;24.77;;;23.20;50.50;;;;;;5031520;28;20453;-41
2022/02/20 10:00:52;;;;;;;25.07;23.97;;;23.20;50.60;;;;;;5031688;28;20998;-40
2022/02/20 10:03:31;;;;;;;29.70;28.00;;;23.10;50.90;;;;;;5031934;28;20502;-41
2022/02/20 10:05:59;;;;;;;27.20;25.90;;;23.10;50.40;;;;;;5032092;28;20441;-40
2022/02/20 10:08:25;;;;;;;34.30;31.30;;;23.10;50.50;;;;;;5031883;28;20457;-40
2022/02/20 10:10:52;;;;;;;33.10;30.83;;;23.00;50.50;;;;;;5031290;28;20470;-39
2022/02/20 10:13:26;;;;;;;36.20;33.50;;;23.00;50.50;;;;;;5031686;28;20449;-40
2022/02/20 10:15:54;;;;;;;37.20;34.20;;;23.00;50.90;;;;;;5031042;28;20488;-40
2022/02/20 10:18:22;;;;;;;30.75;28.15;;;23.20;50.70;;;;;;5030128;28;20445;-40
2022/02/20 10:21:00;;;;;;;29.30;27.13;;;23.40;50.30;;;;;;5030329;28;20926;-40
2022/02/20 10:23:38;;;;;;;34.70;32.07;;;23.60;50.00;;;;;;5031293;28;20202;-40
2022/02/20 10:26:12;;;;;;;31.17;29.03;;;23.70;49.50;;;;;;5031222;28;20823;-39
2022/02/20 10:29:03;;;;;;;30.83;28.80;;;23.70;49.30;;;;;;5031657;28;20499;-40
2022/02/20 10:31:37;;;;;;;30.37;28.07;;;23.60;48.90;;;;;;5031330;28;20449;-40
2022/02/20 10:34:05;;;;;;;32.50;30.20;;;23.60;49.10;;;;;;5031239;28;20456;-40
2022/02/20 10:36:50;;;;;;;32.27;29.77;;;23.60;49.20;;;;;;5031641;28;20558;-40
2022/02/20 10:39:25;;;;;;;35.53;32.40;;;23.60;49.40;;;;;;5030732;28;20472;-40
2022/02/20 10:41:53;;;;;;;36.07;33.13;;;23.80;49.90;;;;;;5031303;28;20453;-40
2022/02/20 10:44:20;;;;;;;35.87;32.63;;;23.90;49.60;;;;;;5030370;28;20449;-40
2022/02/20 10:46:47;;;;;;;36.13;32.70;;;23.90;49.20;;;;;;5030968;28;20448;-40
2022/02/20 10:49:25;;;;;;;41.07;37.50;;;24.00;49.30;;;;;;5031032;28;20481;-40
2022/02/20 10:51:54;;;;;;;38.50;35.13;;;24.10;49.10;;;;;;5030426;28;20813;-40
2022/02/20 10:54:21;;;;;;;40.23;36.67;;;24.10;49.10;;;;;;5030247;28;20456;-39
2022/02/20 10:56:50;;;;;;;36.17;32.80;;;24.00;48.90;;;;;;5030407;28;20484;-41
2022/02/20 10:59:20;;;;;;;37.37;34.17;;;23.90;49.00;;;;;;5030361;28;20473;-40
2022/02/20 11:01:47;;;;;;;38.53;35.47;;;23.80;49.10;;;;;;5031137;28;20544;-40
2022/02/20 11:04:15;;;;;;;37.13;34.00;;;23.80;49.20;;;;;;5030979;28;20453;-41
2022/02/20 11:06:44;;;;;;;39.07;35.97;;;23.70;49.20;;;;;;5031184;28;20877;-41
2022/02/20 11:09:13;;;;;;;38.63;35.43;;;23.80;49.40;;;;;;5030937;28;20484;-44
2022/02/20 11:11:42;;;;;;;36.97;33.57;;;24.00;49.20;;;;;;5031178;28;20450;-39
2022/02/20 11:14:10;;;;;;;36.77;34.27;;;24.10;48.90;;;;;;5031298;28;20447;-40
2022/02/20 11:16:41;;;;;;;37.33;34.03;;;24.10;48.80;;;;;;5031195;28;20477;-43
2022/02/20 11:19:08;;;;;;;38.87;35.70;;;24.10;48.70;;;;;;5030096;28;20469;-40
2022/02/20 11:21:43;;;;;;;37.07;34.30;;;24.10;48.50;;;;;;5031431;28;20818;-41
2022/02/20 11:24:12;;;;;;;32.87;30.53;;;24.10;48.40;;;;;;5034671;28;20485;-40
2022/02/20 11:26:42;;;;;;;33.43;31.03;;;24.00;48.40;;;;;;5034906;28;20441;-39
2022/02/20 11:29:09;;;;;;;31.53;29.13;;;24.00;48.50;;;;;;5034393;28;20834;-40
2022/02/20 11:31:36;;;;;;;36.07;32.57;;;23.90;48.50;;;;;;5034537;28;20459;-41
2022/02/20 11:34:05;;;;;;;34.00;31.43;;;23.90;48.60;;;;;;5034781;28;20552;-40
2022/02/20 11:36:32;;;;;;;32.20;29.87;;;23.80;48.70;;;;;;5034402;28;20491;-40
2022/02/20 11:39:06;;;;;;;34.03;31.20;;;23.80;49.00;;;;;;5034607;28;20460;-40
2022/02/20 11:41:34;;;;;;;32.57;30.20;;;24.00;48.70;;;;;;5034344;28;21133;-40
2022/02/20 11:44:18;;;;;;;34.00;31.67;;;24.00;48.50;;;;;;5033766;28;20448;-42
2022/02/20 11:46:51;;;;;;;34.13;31.47;;;24.00;48.50;;;;;;5034745;28;20532;-40
2022/02/20 11:49:34;;;;;;;33.07;30.13;;;24.00;48.40;;;;;;5034188;28;20556;-40
2022/02/20 11:52:09;;;;;;;32.00;29.50;;;24.00;48.30;;;;;;5034273;28;20469;-40
2022/02/20 11:54:37;;;;;;;31.37;29.27;;;24.00;48.30;;;;;;5034237;28;20806;-41
2022/02/20 11:57:25;;;;;;;29.93;28.00;;;23.90;48.90;;;;;;5034417;28;20974;-42
2022/02/20 12:00:26;;;;;;;32.53;30.70;;;23.90;48.60;;;;;;5034162;28;20469;-41
2022/02/20 12:03:05;;;;;;;32.23;30.23;;;23.80;48.70;;;;;;5033997;28;20454;-40
2022/02/20 12:05:33;;;;;;;33.83;31.73;;;23.90;48.90;;;;;;5034158;28;21105;-41
2022/02/20 12:08:04;;;;;;;32.57;30.40;;;24.10;48.80;;;;;;5034245;28;20445;-41
2022/02/20 12:10:32;;;;;;;26.60;24.60;;;24.10;48.30;;;;;;5032900;28;20441;-40
2022/02/20 12:13:31;;;;;;;32.00;29.70;;;24.20;48.40;;;;;;5033771;28;20452;-40
2022/02/20 12:16:17;;;;;;;32.77;30.67;;;24.20;48.00;;;;;;5034220;28;20441;-40
2022/02/20 12:19:05;;;;;;;29.80;27.90;;;24.20;47.90;;;;;;5033770;28;20461;-40
2022/02/20 12:21:32;;;;;;;30.80;29.00;;;24.10;47.80;;;;;;5033990;28;20447;-40
2022/02/20 12:24:14;;;;;;;31.10;29.27;;;24.10;47.90;;;;;;5033550;28;20441;-41
2022/02/20 12:26:47;;;;;;;29.60;27.80;;;24.10;47.90;;;;;;5034062;28;20437;-40
2022/02/20 12:29:18;;;;;;;31.00;29.17;;;24.00;48.10;;;;;;5033512;28;20946;-40
2022/02/20 12:32:10;;;;;;;33.07;30.93;;;24.10;48.10;;;;;;5033530;28;20446;-41
2022/02/20 12:35:15;;;;;;;29.73;28.23;;;24.30;47.90;;;;;;5033654;28;20481;-42
2022/02/20 12:37:44;;;;;;;29.70;28.00;;;24.20;47.70;;;;;;5033638;28;20485;-40
2022/02/20 12:40:13;;;;;;;30.83;29.13;;;24.20;47.70;;;;;;5033544;28;20477;-41
2022/02/20 12:42:44;;;;;;;30.00;28.30;;;24.20;47.70;;;;;;5033429;28;20527;-40
2022/02/20 12:45:16;;;;;;;28.10;26.63;;;24.10;47.60;;;;;;5033477;28;20452;-39
2022/02/20 12:47:47;;;;;;;29.00;27.33;;;24.10;47.50;;;;;;5033580;28;20495;-40
2022/02/20 12:50:15;;;;;;;29.80;28.20;;;24.10;47.80;;;;;;5066987;22;20546;-45
2022/02/20 12:52:43;;;;;;;26.70;25.40;;;23.90;47.90;;;;;;5053295;28;20452;-44
2022/02/20 12:55:14;;;;;;;28.33;26.73;;;23.90;47.90;;;;;;5053565;28;20448;-46
2022/02/20 12:57:41;;;;;;;27.60;26.23;;;24.20;48.00;;;;;;5053414;28;20484;-45
2022/02/20 13:00:11;;;;;;;28.93;27.17;;;24.20;47.70;;;;;;5052715;28;20468;-46
2022/02/20 13:02:44;;;;;;;28.97;27.40;;;24.20;47.70;;;;;;5053390;28;20448;-45
2022/02/20 13:05:18;;;;;;;27.70;26.20;;;24.20;47.70;;;;;;5053243;28;20463;-44
2022/02/20 13:07:50;;;;;;;29.80;28.20;;;24.20;47.90;;;;;;5053010;28;20444;-48
2022/02/20 13:10:20;;;;;;;27.93;26.40;;;24.20;48.40;;;;;;5052805;28;20487;-47
2022/02/20 13:13:02;;;;;;;27.57;26.17;;;24.20;48.00;;;;;;5053027;28;20441;-45
2022/02/20 13:15:31;;;;;;;27.10;25.70;;;24.10;48.20;;;;;;5053201;28;20456;-45
2022/02/20 13:18:09;;;;;;;28.17;26.77;;;24.00;48.00;;;;;;5052839;28;20998;-44
2022/02/20 13:20:45;;;;;;;30.03;28.33;;;24.00;48.10;;;;;;5052676;28;20884;-48
2022/02/20 13:23:24;;;;;;;29.53;28.03;;;23.90;48.30;;;;;;5053002;28;20526;-49
2022/02/20 13:25:52;;;;;;;29.27;27.77;;;24.00;48.70;;;;;;5052752;28;20459;-46
2022/02/20 13:28:20;;;;;;;28.63;27.23;;;24.10;48.40;;;;;;5052498;28;20445;-45
2022/02/20 13:30:48;;;;;;;29.03;27.53;;;24.20;48.30;;;;;;5052404;28;20496;-47
2022/02/20 13:33:18;;;;;;;29.57;27.97;;;24.20;48.20;;;;;;5052940;28;20448;-48
2022/02/20 13:35:46;;;;;;;31.43;29.83;;;24.20;48.30;;;;;;5053000;28;20785;-47
2022/02/20 13:38:16;;;;;;;30.03;28.53;;;24.10;48.30;;;;;;5052744;28;20484;-46
2022/02/20 13:40:44;;;;;;;28.47;26.97;;;24.10;48.30;;;;;;5051885;28;20471;-44
2022/02/20 13:43:16;;;;;;;27.47;26.07;;;24.10;48.40;;;;;;5052210;28;20449;-48
2022/02/20 13:45:55;;;;;;;28.60;27.20;;;24.00;48.40;;;;;;5051703;28;20944;-46
2022/02/20 13:48:29;;;;;;;28.07;26.67;;;24.00;48.50;;;;;;5052247;28;20440;-46
2022/02/20 13:51:19;;;;;;;27.33;25.77;;;23.90;48.70;;;;;;5051958;28;20475;-44
2022/02/20 13:53:48;;;;;;;26.57;25.17;;;23.90;48.90;;;;;;5032654;28;20803;-50
2022/02/20 13:56:16;;;;;;;28.23;26.73;;;24.10;48.80;;;;;;5046984;28;20790;-47
2022/02/20 13:58:43;;;;;;;27.07;25.63;;;24.20;48.60;;;;;;5052223;28;20488;-47
2022/02/20 14:01:11;;;;;;;29.70;28.20;;;24.20;48.40;;;;;;5052526;28;20832;-44
2022/02/20 14:03:41;;;;;;;30.47;29.00;;;24.10;48.40;;;;;;5051986;28;20455;-44
2022/02/20 14:06:09;;;;;;;30.03;28.53;;;24.10;48.40;;;;;;5052207;28;20527;-47
2022/02/20 14:08:38;;;;;;;30.87;29.30;;;24.00;48.50;;;;;;5051940;28;20440;-46
2022/02/20 14:11:09;;;;;;;29.60;28.20;;;24.00;48.60;;;;;;5052044;28;20471;-47
2022/02/20 14:13:37;;;;;;;27.23;25.90;;;24.00;48.90;;;;;;5052052;28;20818;-46
2022/02/20 14:16:05;;;;;;;27.87;26.47;;;24.10;48.50;;;;;;5051636;28;20448;-44
2022/02/20 14:18:42;;;;;;;26.53;25.33;;;24.10;48.40;;;;;;5051926;28;20590;-49
2022/02/20 14:21:17;;;;;;;29.00;27.60;;;24.10;48.30;;;;;;5052015;28;20460;-49
2022/02/20 14:23:49;;;;;;;27.57;26.17;;;24.10;48.40;;;;;;5051842;28;20816;-44
2022/02/20 14:26:17;;;;;;;28.23;26.73;;;24.10;48.40;;;;;;5051695;28;20448;-44
2022/02/20 14:28:52;;;;;;;26.83;25.52;;;24.00;48.40;;;;;;5050681;28;20435;-43
2022/02/20 14:31:23;;;;;;;26.77;25.50;;;24.10;48.80;;;;;;5051671;28;20221;-46
2022/02/20 14:33:54;;;;;;;28.70;27.30;;;24.00;48.70;;;;;;5051671;28;20452;-45
2022/02/20 14:36:28;;;;;;;29.40;27.70;;;23.90;49.00;;;;;;5051713;28;20451;-45
2022/02/20 14:38:57;;;;;;;26.63;25.37;;;23.90;49.20;;;;;;5051530;28;20512;-48
2022/02/20 14:41:24;;;;;;;27.70;26.20;;;23.80;49.50;;;;;;5051575;28;20507;-47
2022/02/20 14:43:51;;;;;;;27.40;26.00;;;24.00;49.70;;;;;;5051717;28;20452;-47
2022/02/20 14:46:17;;;;;;;27.80;26.40;;;24.10;49.60;;;;;;5051650;28;20444;-47
2022/02/20 14:48:45;;;;;;;25.40;24.10;;;24.10;49.40;;;;;;5051744;28;20860;-46
2022/02/20 14:51:15;;;;;;;27.67;26.17;;;24.10;49.40;;;;;;5051156;28;20480;-47
2022/02/20 14:53:41;;;;;;;26.57;25.37;;;24.00;49.40;;;;;;5051514;28;20462;-46
2022/02/20 14:56:08;;;;;;;25.85;24.65;;;24.00;49.50;;;;;;5051460;28;20446;-46
2022/02/20 14:58:36;;;;;;;25.90;24.70;;;23.90;49.40;;;;;;5055257;28;20237;-45
2022/02/20 15:01:04;;;;;;;28.97;27.57;;;23.90;49.50;;;;;;5055714;28;20491;-46
2022/02/20 15:03:31;;;;;;;29.70;28.27;;;23.90;49.70;;;;;;5055074;28;20452;-47
2022/02/20 15:05:58;;;;;;;26.63;25.33;;;23.90;49.80;;;;;;5055190;28;20448;-47
2022/02/20 15:08:26;;;;;;;26.20;24.90;;;23.80;49.80;;;;;;5055144;28;20445;-47
2022/02/20 15:10:53;;;;;;;26.07;24.77;;;23.90;50.00;;;;;;5055140;28;20460;-48
2022/02/20 15:13:19;;;;;;;29.17;27.77;;;24.10;49.90;;;;;;5055133;28;20444;-48
2022/02/20 15:15:46;;;;;;;29.13;27.93;;;24.10;49.50;;;;;;5054735;28;20463;-46
2022/02/20 15:18:13;;;;;;;27.50;26.10;;;24.10;49.40;;;;;;5054745;28;21083;-48
2022/02/20 15:20:40;;;;;;;30.23;28.60;;;24.20;49.60;;;;;;5054795;28;20460;-51
2022/02/20 15:23:08;;;;;;;27.90;26.60;;;24.10;49.40;;;;;;5054855;28;20443;-45
2022/02/20 15:25:36;;;;;;;27.00;25.80;;;24.00;49.40;;;;;;5054759;28;20452;-48
2022/02/20 15:28:05;;;;;;;26.97;25.77;;;24.00;49.50;;;;;;5054144;28;20440;-49
2022/02/20 15:30:31;;;;;;;27.40;26.20;;;23.90;49.60;;;;;;5054618;28;20472;-48
2022/02/20 15:32:58;;;;;;;28.83;27.43;;;23.90;49.60;;;;;;5053920;28;20953;-45
2022/02/20 15:35:27;;;;;;;27.37;26.07;;;23.90;49.70;;;;;;5055015;28;20448;-49
2022/02/20 15:37:55;;;;;;;25.13;23.83;;;23.90;49.80;;;;;;5054332;28;20459;-47
2022/02/20 15:40:22;;;;;;;29.00;27.70;;;24.10;49.80;;;;;;5054933;28;20768;-47
2022/02/20 15:42:51;;;;;;;28.30;27.00;;;24.10;49.50;;;;;;5055275;28;20561;-50
2022/02/20 15:45:17;;;;;;;27.40;26.10;;;24.10;49.30;;;;;;5054639;28;20804;-46
2022/02/20 15:47:45;;;;;;;26.60;25.30;;;24.10;49.50;;;;;;5054301;28;20831;-44
2022/02/20 15:50:11;;;;;;;28.70;27.30;;;24.10;49.40;;;;;;5054193;28;20494;-46
2022/02/20 15:52:41;;;;;;;27.43;26.13;;;24.10;49.40;;;;;;5054028;28;20452;-44
2022/02/20 15:55:09;;;;;;;31.17;29.77;;;24.10;49.50;;;;;;5054267;28;20506;-43
2022/02/20 15:57:35;;;;;;;27.53;26.43;;;24.00;49.40;;;;;;5053896;28;20476;-46
2022/02/20 16:00:04;;;;;;;28.70;27.40;;;23.90;49.50;;;;;;5053846;28;20471;-44
2022/02/20 16:02:31;;;;;;;28.90;27.40;;;23.90;49.50;;;;;;5054165;28;20449;-53
2022/02/20 16:04:58;;;;;;;29.33;27.73;;;23.90;50.50;;;;;;5053859;28;20448;-52
2022/02/20 16:07:25;;;;;;;28.07;26.77;;;23.50;49.20;;;;;;5053678;28;20813;-50
2022/02/20 16:09:52;;;;;;;27.30;25.80;;;22.70;50.30;;;;;;5053817;28;20475;-50
2022/02/20 16:12:19;;;;;;;27.97;26.57;;;22.20;51.50;;;;;;5054016;28;20813;-50
2022/02/20 16:14:45;;;;;;;28.60;26.80;;;21.90;52.40;;;;;;5053999;28;20810;-49
2022/02/20 16:17:15;;;;;;;28.63;27.10;;;21.80;52.50;;;;;;5053551;28;20449;-49
2022/02/20 16:19:42;;;;;;;26.77;25.57;;;21.40;53.30;;;;;;5053532;28;20493;-50
2022/02/20 16:22:09;;;;;;;27.60;26.20;;;20.90;54.60;;;;;;5053792;28;20448;-49
2022/02/20 16:24:35;;;;;;;28.70;27.40;;;20.70;56.00;;;;;;5053821;28;20440;-52
2022/02/20 16:27:02;;;;;;;27.50;26.00;;;20.30;56.70;;;;;;5053756;28;20960;-49
2022/02/20 16:29:29;;;;;;;25.53;24.33;;;20.10;58.40;;;;;;5053240;28;20457;-50
2022/02/20 16:31:56;;;;;;;26.60;25.40;;;19.70;59.00;;;;;;5053815;28;20478;-49
2022/02/20 16:34:24;;;;;;;26.23;24.53;;;19.40;60.80;;;;;;5053725;28;20440;-53
2022/02/20 16:36:52;;;;;;;26.07;24.67;;;19.50;62.20;;;;;;5053519;28;20448;-51
2022/02/20 16:39:19;;;;;;;26.53;25.27;;;19.30;63.30;;;;;;5053263;28;20915;-49
2022/02/20 16:41:46;;;;;;;25.50;24.30;;;19.30;64.00;;;;;;5053588;28;20444;-49
2022/02/20 16:44:12;;;;;;;25.50;24.20;;;19.40;64.30;;;;;;5053458;28;20445;-50
2022/02/20 16:46:41;;;;;;;27.33;25.70;;;19.30;65.10;;;;;;5053077;28;20980;-51
2022/02/20 16:49:08;;;;;;;24.40;23.00;;;19.00;66.60;;;;;;5052934;28;20941;-46
2022/02/20 16:51:36;;;;;;;24.47;22.90;;;19.00;67.90;;;;;;5053327;28;20455;-47
2022/02/20 16:54:03;;;;;;;24.07;22.87;;;18.70;69.70;;;;;;5053326;28;20444;-51
2022/02/20 16:56:30;;;;;;;24.93;23.53;;;18.90;70.50;;;;;;5053215;28;20502;-50
2022/02/20 16:58:57;;;;;;;24.23;23.00;;;18.70;70.90;;;;;;5052467;28;20476;-47
2022/02/20 17:01:26;;;;;;;26.10;24.60;;;18.40;72.30;;;;;;5053236;28;20449;-50
2022/02/20 17:03:54;;;;;;;26.27;24.77;;;18.30;74.90;;;;;;5053034;28;20445;-48
2022/02/20 17:06:23;;;;;;;25.10;23.30;;;18.40;74.90;;;;;;5052798;28;20444;-50
2022/02/20 17:08:51;;;;;;;24.03;22.63;;;18.40;75.90;;;;;;5052706;28;20498;-47
2022/02/20 17:11:17;;;;;;;23.40;22.00;;;18.20;77.80;;;;;;5052830;28;20460;-50
2022/02/20 17:13:44;;;;;;;24.70;23.03;;;18.10;78.80;;;;;;5052869;28;20449;-47
2022/02/20 17:16:11;;;;;;;24.30;22.70;;;18.00;79.40;;;;;;5052602;28;20445;-48
2022/02/20 17:18:38;;;;;;;23.23;22.13;;;18.30;81.70;;;;;;5052445;28;20507;-48
2022/02/20 17:21:04;;;;;;;23.20;22.10;;;18.70;79.90;;;;;;5051984;28;20464;-45
2022/02/20 17:23:31;;;;;;;23.90;22.70;;;19.00;77.80;;;;;;5052753;28;20445;-48
2022/02/20 17:25:59;;;;;;;24.33;23.03;;;19.50;75.80;;;;;;5052631;28;20441;-44
2022/02/20 17:28:26;;;;;;;23.40;22.30;;;19.80;73.00;;;;;;5052132;28;20443;-47
2022/02/20 17:30:53;;;;;;;23.80;22.70;;;20.10;70.70;;;;;;5052333;28;20461;-45
2022/02/20 17:33:21;;;;;;;23.40;22.20;;;20.30;68.90;;;;;;5052378;28;20448;-47
2022/02/20 17:35:48;;;;;;;24.30;23.03;;;20.70;67.20;;;;;;5052453;28;20456;-47
2022/02/20 17:38:14;;;;;;;23.83;22.70;;;21.10;64.40;;;;;;5052252;28;20836;-46
2022/02/20 17:40:41;;;;;;;23.40;22.30;;;21.40;61.80;;;;;;5051923;28;20480;-47
2022/02/20 17:43:10;;;;;;;24.23;23.03;;;21.60;60.20;;;;;;5052362;28;20476;-44
2022/02/20 17:45:37;;;;;;;25.60;24.20;;;21.70;59.20;;;;;;5052262;28;20488;-47
2022/02/20 17:48:04;;;;;;;25.17;23.77;;;21.90;58.60;;;;;;5052330;28;20460;-46
2022/02/20 17:50:31;;;;;;;24.30;23.10;;;22.00;57.80;;;;;;5052231;28;20565;-47
2022/02/20 17:53:01;;;;;;;25.83;24.53;;;22.00;57.20;;;;;;5052351;28;20444;-46
2022/02/20 17:55:28;;;;;;;24.43;23.13;;;22.10;56.90;;;;;;5052501;28;20444;-45
2022/02/20 17:57:56;;;;;;;24.90;23.63;;;22.20;56.60;;;;;;5052527;28;20803;-46
2022/02/20 18:00:24;;;;;;;24.37;23.10;;;22.40;55.90;;;;;;5051880;28;21036;-46
2022/02/20 18:02:51;;;;;;;24.97;23.67;;;22.60;55.00;;;;;;5052356;28;20451;-48
2022/02/20 18:05:18;;;;;;;24.73;23.53;;;22.70;54.40;;;;;;5052164;28;20807;-46
2022/02/20 18:07:45;;;;;;;24.93;23.63;;;22.80;54.00;;;;;;5051883;28;20953;-44
2022/02/20 18:10:12;;;;;;;24.50;23.30;;;22.90;53.70;;;;;;5052155;28;20572;-45
2022/02/20 18:12:39;;;;;;;23.73;22.53;;;22.90;53.40;;;;;;5052241;28;20436;-46
2022/02/20 18:15:07;;;;;;;23.60;22.40;;;22.90;52.90;;;;;;5052191;28;21004;-48
2022/02/20 18:17:35;;;;;;;23.73;22.53;;;23.00;52.80;;;;;;5051996;28;20455;-47
2022/02/20 18:20:03;;;;;;;23.63;22.47;;;22.90;52.30;;;;;;5031636;28;20481;-44
2022/02/20 18:22:30;;;;;;;24.30;23.00;;;23.00;52.30;;;;;;5032356;28;20473;-48
2022/02/20 18:24:57;;;;;;;24.00;22.70;;;23.00;52.20;;;;;;5031923;28;20545;-50
2022/02/20 18:27:24;;;;;;;22.80;21.70;;;23.00;52.50;;;;;;5032258;28;20532;-47
2022/02/20 18:29:51;;;;;;;24.70;23.30;;;23.10;52.60;;;;;;5043596;28;20520;-46
2022/02/20 18:32:18;;;;;;;23.60;22.30;;;23.30;52.20;;;;;;5052075;28;20523;-45
2022/02/20 18:34:46;;;;;;;24.37;23.07;;;23.50;51.90;;;;;;5052245;28;20479;-48
2022/02/20 18:37:15;;;;;;;24.60;23.30;;;23.50;51.20;;;;;;5051971;28;20444;-47
2022/02/20 18:39:41;;;;;;;24.87;23.57;;;23.50;51.00;;;;;;5051078;28;20865;-46
2022/02/20 18:42:09;;;;;;;24.30;22.90;;;23.60;51.10;;;;;;5052146;28;20480;-47
2022/02/20 18:44:36;;;;;;;23.90;22.60;;;23.60;51.00;;;;;;5051940;28;20445;-46
2022/02/20 18:47:03;;;;;;;24.77;23.57;;;23.60;50.70;;;;;;5051730;28;20440;-45
2022/02/20 18:49:30;;;;;;;23.63;22.47;;;23.60;50.70;;;;;;5074051;22;20478;-41
2022/02/20 18:51:59;;;;;;;24.90;23.43;;;23.60;50.60;;;;;;5031546;28;20480;-41
2022/02/20 18:54:26;;;;;;;23.87;22.57;;;23.60;50.60;;;;;;5031918;28;20449;-42
2022/02/20 18:56:53;;;;;;;24.90;23.60;;;23.60;50.40;;;;;;5031924;28;20580;-42
2022/02/20 18:59:20;;;;;;;24.53;23.33;;;23.60;50.50;;;;;;5031143;28;20576;-42
2022/02/20 19:01:49;;;;;;;25.13;23.70;;;23.70;50.50;;;;;;5031620;28;20449;-42
2022/02/20 19:04:16;;;;;;;23.83;22.60;;;23.80;50.50;;;;;;5031834;28;20537;-40
2022/02/20 19:06:43;;;;;;;23.43;22.23;;;24.00;50.30;;;;;;5031905;28;20449;-42
2022/02/20 19:09:11;;;;;;;24.20;23.00;;;24.00;50.10;;;;;;5031764;28;20442;-41
2022/02/20 19:11:39;;;;;;;23.60;22.50;;;24.00;49.70;;;;;;5031386;28;20476;-45
2022/02/20 19:14:06;;;;;;;23.60;22.50;;;24.10;49.80;;;;;;5031675;28;20452;-42